Art, Indiana
Current Conditions -  °F | °C
As of 2:53 AM on Monday 22 Dec 2014 (Local Time) from KHUF Reporting Station
Overcast Overcast  
Wind Chill: 26°   Ceiling: 10000
Heat Index: 31°   Visibility: 9mi
Dew Point: 27°   Wind: 5mph
Humidity: 85%   Direction: 110°ESE
Pressure: 30"   Gusts: NA
Location:  39.5158°N, 87.1262°W
Report Text: KHUF 220753Z 11004KT 9SM OVC100 M01/M03 A3000 RMK AO2 SLP164 T10061028
Loading
Personal Weather Stations






























Interactive Weather Map New forecast layout! Learn more

10-Day Weather Forecast

Advertisements
Track Severe Weather on mobile